sensor_id;sensor_type;location;lat;lon;timestamp;P1;durP1;ratioP1;P2;durP2;ratioP2
10381;SDS011;11635;53.636;10.120;2023-02-01T00:01:14;28.13;;;6.68;;
10381;SDS011;11635;53.636;10.120;2023-02-01T00:03:40;22.13;;;5.25;;
10381;SDS011;11635;53.636;10.120;2023-02-01T00:06:08;30.55;;;6.05;;
10381;SDS011;11635;53.636;10.120;2023-02-01T00:08:34;26.48;;;5.95;;
10381;SDS011;11635;53.636;10.120;2023-02-01T00:11:02;23.23;;;4.82;;
10381;SDS011;11635;53.636;10.120;2023-02-01T00:13:28;18.85;;;5.03;;
10381;SDS011;11635;53.636;10.120;2023-02-01T00:16:01;22.52;;;4.82;;
10381;SDS011;11635;53.636;10.120;2023-02-01T00:18:28;17.17;;;4.68;;
10381;SDS011;11635;53.636;10.120;2023-02-01T00:20:54;23.83;;;5.40;;
10381;SDS011;11635;53.636;10.120;2023-02-01T00:23:22;18.55;;;5.50;;
10381;SDS011;11635;53.636;10.120;2023-02-01T00:25:48;18.80;;;4.95;;
10381;SDS011;11635;53.636;10.120;2023-02-01T00:28:14;20.03;;;5.07;;
10381;SDS011;11635;53.636;10.120;2023-02-01T00:30:40;21.70;;;5.78;;
10381;SDS011;11635;53.636;10.120;2023-02-01T00:33:07;21.45;;;5.75;;
10381;SDS011;11635;53.636;10.120;2023-02-01T00:35:33;21.60;;;5.60;;
10381;SDS011;11635;53.636;10.120;2023-02-01T00:37:59;31.48;;;6.38;;
10381;SDS011;11635;53.636;10.120;2023-02-01T00:40:27;25.60;;;5.38;;
10381;SDS011;11635;53.636;10.120;2023-02-01T00:42:53;21.85;;;6.20;;
10381;SDS011;11635;53.636;10.120;2023-02-01T00:45:20;31.48;;;5.30;;
10381;SDS011;11635;53.636;10.120;2023-02-01T00:47:46;20.67;;;5.13;;
10381;SDS011;11635;53.636;10.120;2023-02-01T00:50:12;22.10;;;5.70;;
10381;SDS011;11635;53.636;10.120;2023-02-01T00:52:39;24.03;;;6.77;;
10381;SDS011;11635;53.636;10.120;2023-02-01T00:55:05;22.35;;;5.60;;
10381;SDS011;11635;53.636;10.120;2023-02-01T00:57:33;20.38;;;5.55;;
10381;SDS011;11635;53.636;10.120;2023-02-01T00:59:59;19.33;;;5.25;;
10381;SDS011;11635;53.636;10.120;2023-02-01T01:02:26;22.85;;;5.25;;
10381;SDS011;11635;53.636;10.120;2023-02-01T01:04:52;27.73;;;7.15;;
10381;SDS011;11635;53.636;10.120;2023-02-01T01:07:18;28.27;;;7.70;;
10381;SDS011;11635;53.636;10.120;2023-02-01T01:09:45;26.40;;;6.80;;
10381;SDS011;11635;53.636;10.120;2023-02-01T01:12:11;27.27;;;5.68;;
10381;SDS011;11635;53.636;10.120;2023-02-01T01:14:39;31.88;;;7.28;;
10381;SDS011;11635;53.636;10.120;2023-02-01T01:17:05;24.20;;;6.13;;
10381;SDS011;11635;53.636;10.120;2023-02-01T01:19:31;31.02;;;6.68;;
10381;SDS011;11635;53.636;10.120;2023-02-01T01:21:58;23.23;;;6.70;;
10381;SDS011;11635;53.636;10.120;2023-02-01T01:24:24;27.48;;;6.15;;
10381;SDS011;11635;53.636;10.120;2023-02-01T01:26:50;21.00;;;5.72;;
10381;SDS011;11635;53.636;10.120;2023-02-01T01:29:17;28.15;;;5.57;;
10381;SDS011;11635;53.636;10.120;2023-02-01T01:31:44;30.60;;;5.97;;
10381;SDS011;11635;53.636;10.120;2023-02-01T01:34:11;28.73;;;7.07;;
10381;SDS011;11635;53.636;10.120;2023-02-01T01:36:37;24.00;;;6.00;;
10381;SDS011;11635;53.636;10.120;2023-02-01T01:39:03;29.27;;;5.95;;
10381;SDS011;11635;53.636;10.120;2023-02-01T01:41:30;31.90;;;6.82;;
10381;SDS011;11635;53.636;10.120;2023-02-01T01:43:57;24.20;;;6.53;;
10381;SDS011;11635;53.636;10.120;2023-02-01T01:46:24;27.48;;;6.97;;
10381;SDS011;11635;53.636;10.120;2023-02-01T01:48:53;27.65;;;7.10;;
10381;SDS011;11635;53.636;10.120;2023-02-01T01:51:22;36.97;;;6.65;;
10381;SDS011;11635;53.636;10.120;2023-02-01T01:53:50;28.48;;;7.20;;
10381;SDS011;11635;53.636;10.120;2023-02-01T01:56:18;34.10;;;7.88;;
10381;SDS011;11635;53.636;10.120;2023-02-01T01:58:44;31.55;;;6.82;;
10381;SDS011;11635;53.636;10.120;2023-02-01T02:01:11;29.20;;;6.95;;
10381;SDS011;11635;53.636;10.120;2023-02-01T02:03:38;33.17;;;6.95;;
10381;SDS011;11635;53.636;10.120;2023-02-01T02:06:08;31.75;;;6.53;;
10381;SDS011;11635;53.636;10.120;2023-02-01T02:08:38;31.75;;;7.10;;
10381;SDS011;11635;53.636;10.120;2023-02-01T02:11:05;30.27;;;7.38;;
10381;SDS011;11635;53.636;10.120;2023-02-01T02:13:32;34.80;;;6.88;;
10381;SDS011;11635;53.636;10.120;2023-02-01T02:16:05;33.28;;;6.38;;
10381;SDS011;11635;53.636;10.120;2023-02-01T02:18:34;32.03;;;7.15;;
10381;SDS011;11635;53.636;10.120;2023-02-01T02:21:12;23.90;;;5.70;;
10381;SDS011;11635;53.636;10.120;2023-02-01T02:23:47;26.50;;;7.82;;
10381;SDS011;11635;53.636;10.120;2023-02-01T02:26:25;29.10;;;7.13;;
10381;SDS011;11635;53.636;10.120;2023-02-01T02:29:09;31.63;;;6.97;;
10381;SDS011;11635;53.636;10.120;2023-02-01T02:31:50;21.05;;;5.85;;
10381;SDS011;11635;53.636;10.120;2023-02-01T02:34:23;27.73;;;7.07;;
10381;SDS011;11635;53.636;10.120;2023-02-01T02:36:54;31.15;;;8.02;;
10381;SDS011;11635;53.636;10.120;2023-02-01T02:39:23;26.10;;;6.57;;
10381;SDS011;11635;53.636;10.120;2023-02-01T02:41:55;28.95;;;7.15;;
10381;SDS011;11635;53.636;10.120;2023-02-01T02:44:43;30.83;;;8.02;;
10381;SDS011;11635;53.636;10.120;2023-02-01T02:47:31;29.45;;;6.70;;
10381;SDS011;11635;53.636;10.120;2023-02-01T02:50:02;29.85;;;6.72;;
10381;SDS011;11635;53.636;10.120;2023-02-01T02:52:50;33.35;;;6.32;;
10381;SDS011;11635;53.636;10.120;2023-02-01T02:55:34;24.70;;;5.50;;
10381;SDS011;11635;53.636;10.120;2023-02-01T02:58:02;26.30;;;6.15;;
10381;SDS011;11635;53.636;10.120;2023-02-01T03:00:47;32.40;;;5.90;;
10381;SDS011;11635;53.636;10.120;2023-02-01T03:03:34;26.75;;;5.78;;
10381;SDS011;11635;53.636;10.120;2023-02-01T03:06:22;34.63;;;7.45;;
10381;SDS011;11635;53.636;10.120;2023-02-01T03:08:48;28.77;;;6.95;;
10381;SDS011;11635;53.636;10.120;2023-02-01T03:11:19;34.05;;;7.18;;
10381;SDS011;11635;53.636;10.120;2023-02-01T03:13:48;26.77;;;6.57;;
10381;SDS011;11635;53.636;10.120;2023-02-01T03:16:15;28.80;;;7.30;;
10381;SDS011;11635;53.636;10.120;2023-02-01T03:18:48;36.17;;;7.18;;
10381;SDS011;11635;53.636;10.120;2023-02-01T03:21:17;29.15;;;6.90;;
10381;SDS011;11635;53.636;10.120;2023-02-01T03:23:45;33.92;;;6.60;;
10381;SDS011;11635;53.636;10.120;2023-02-01T03:26:13;30.90;;;5.82;;
10381;SDS011;11635;53.636;10.120;2023-02-01T03:28:42;23.42;;;6.22;;
10381;SDS011;11635;53.636;10.120;2023-02-01T03:31:08;22.70;;;6.63;;
10381;SDS011;11635;53.636;10.120;2023-02-01T03:33:35;30.45;;;5.95;;
10381;SDS011;11635;53.636;10.120;2023-02-01T03:36:06;19.45;;;5.25;;
10381;SDS011;11635;53.636;10.120;2023-02-01T03:38:36;23.58;;;5.13;;
10381;SDS011;11635;53.636;10.120;2023-02-01T03:41:08;27.42;;;6.32;;
10381;SDS011;11635;53.636;10.120;2023-02-01T03:43:37;24.30;;;6.07;;
10381;SDS011;11635;53.636;10.120;2023-02-01T03:46:06;25.33;;;5.88;;
10381;SDS011;11635;53.636;10.120;2023-02-01T03:48:34;22.60;;;5.05;;
10381;SDS011;11635;53.636;10.120;2023-02-01T03:51:01;15.63;;;4.50;;
10381;SDS011;11635;53.636;10.120;2023-02-01T03:53:30;26.20;;;5.20;;
10381;SDS011;11635;53.636;10.120;2023-02-01T03:55:56;23.85;;;5.35;;
10381;SDS011;11635;53.636;10.120;2023-02-01T03:58:24;24.40;;;4.93;;
10381;SDS011;11635;53.636;10.120;2023-02-01T04:00:51;22.77;;;4.82;;
10381;SDS011;11635;53.636;10.120;2023-02-01T04:03:19;19.60;;;4.60;;
10381;SDS011;11635;53.636;10.120;2023-02-01T04:05:46;19.38;;;5.25;;
10381;SDS011;11635;53.636;10.120;2023-02-01T04:08:12;14.52;;;4.32;;
10381;SDS011;11635;53.636;10.120;2023-02-01T04:10:39;15.77;;;4.40;;
10381;SDS011;11635;53.636;10.120;2023-02-01T04:13:05;17.58;;;4.50;;
10381;SDS011;11635;53.636;10.120;2023-02-01T04:15:34;26.88;;;5.78;;
10381;SDS011;11635;53.636;10.120;2023-02-01T04:18:00;17.52;;;4.72;;
10381;SDS011;11635;53.636;10.120;2023-02-01T04:20:26;17.60;;;5.18;;
10381;SDS011;11635;53.636;10.120;2023-02-01T04:22:53;16.83;;;4.97;;
10381;SDS011;11635;53.636;10.120;2023-02-01T04:25:19;19.45;;;4.65;;
10381;SDS011;11635;53.636;10.120;2023-02-01T04:27:45;21.50;;;4.97;;
10381;SDS011;11635;53.636;10.120;2023-02-01T04:30:12;22.15;;;4.97;;
10381;SDS011;11635;53.636;10.120;2023-02-01T04:32:40;22.05;;;5.15;;
10381;SDS011;11635;53.636;10.120;2023-02-01T04:35:07;28.60;;;6.05;;
10381;SDS011;11635;53.636;10.120;2023-02-01T04:37:33;17.70;;;4.45;;
10381;SDS011;11635;53.636;10.120;2023-02-01T04:39:59;16.60;;;4.88;;
10381;SDS011;11635;53.636;10.120;2023-02-01T04:42:28;21.33;;;5.88;;
10381;SDS011;11635;53.636;10.120;2023-02-01T04:44:55;19.98;;;4.88;;
10381;SDS011;11635;53.636;10.120;2023-02-01T04:47:21;25.30;;;5.82;;
10381;SDS011;11635;53.636;10.120;2023-02-01T04:49:49;24.48;;;5.68;;
10381;SDS011;11635;53.636;10.120;2023-02-01T04:52:15;20.75;;;5.30;;
10381;SDS011;11635;53.636;10.120;2023-02-01T04:54:41;15.95;;;4.88;;
10381;SDS011;11635;53.636;10.120;2023-02-01T04:57:07;20.77;;;4.65;;
10381;SDS011;11635;53.636;10.120;2023-02-01T04:59:34;19.70;;;4.10;;
10381;SDS011;11635;53.636;10.120;2023-02-01T05:02:00;14.60;;;3.88;;
10381;SDS011;11635;53.636;10.120;2023-02-01T05:04:27;8.80;;;3.60;;
10381;SDS011;11635;53.636;10.120;2023-02-01T05:06:54;8.30;;;3.30;;
10381;SDS011;11635;53.636;10.120;2023-02-01T05:09:21;14.55;;;4.13;;
10381;SDS011;11635;53.636;10.120;2023-02-01T05:11:47;13.15;;;3.67;;
10381;SDS011;11635;53.636;10.120;2023-02-01T05:14:31;10.95;;;3.22;;
10381;SDS011;11635;53.636;10.120;2023-02-01T05:16:57;10.23;;;3.03;;
10381;SDS011;11635;53.636;10.120;2023-02-01T05:19:23;8.55;;;3.08;;
10381;SDS011;11635;53.636;10.120;2023-02-01T05:21:50;8.52;;;2.70;;
10381;SDS011;11635;53.636;10.120;2023-02-01T05:24:17;5.22;;;2.90;;
10381;SDS011;11635;53.636;10.120;2023-02-01T05:26:45;8.95;;;2.92;;
10381;SDS011;11635;53.636;10.120;2023-02-01T05:29:12;4.90;;;2.30;;
10381;SDS011;11635;53.636;10.120;2023-02-01T05:31:39;6.95;;;2.47;;
10381;SDS011;11635;53.636;10.120;2023-02-01T05:34:05;4.45;;;2.00;;
10381;SDS011;11635;53.636;10.120;2023-02-01T05:36:32;9.57;;;2.17;;
10381;SDS011;11635;53.636;10.120;2023-02-01T05:38:58;7.30;;;1.85;;
10381;SDS011;11635;53.636;10.120;2023-02-01T05:41:27;5.80;;;1.90;;
10381;SDS011;11635;53.636;10.120;2023-02-01T05:43:54;7.38;;;1.95;;
10381;SDS011;11635;53.636;10.120;2023-02-01T05:46:22;3.85;;;1.77;;
10381;SDS011;11635;53.636;10.120;2023-02-01T05:48:48;4.10;;;1.55;;
10381;SDS011;11635;53.636;10.120;2023-02-01T05:51:16;3.88;;;1.88;;
10381;SDS011;11635;53.636;10.120;2023-02-01T05:53:43;5.15;;;1.60;;
10381;SDS011;11635;53.636;10.120;2023-02-01T05:56:10;5.95;;;1.85;;
10381;SDS011;11635;53.636;10.120;2023-02-01T05:58:38;2.80;;;1.50;;
10381;SDS011;11635;53.636;10.120;2023-02-01T06:01:05;4.38;;;1.50;;
10381;SDS011;11635;53.636;10.120;2023-02-01T06:03:31;3.92;;;1.50;;
10381;SDS011;11635;53.636;10.120;2023-02-01T06:05:57;1.88;;;1.50;;
10381;SDS011;11635;53.636;10.120;2023-02-01T06:08:26;2.80;;;1.77;;
10381;SDS011;11635;53.636;10.120;2023-02-01T06:10:56;4.78;;;1.65;;
10381;SDS011;11635;53.636;10.120;2023-02-01T06:13:23;2.72;;;1.60;;
10381;SDS011;11635;53.636;10.120;2023-02-01T06:15:51;1.93;;;1.50;;
10381;SDS011;11635;53.636;10.120;2023-02-01T06:18:17;6.00;;;1.60;;
10381;SDS011;11635;53.636;10.120;2023-02-01T06:20:44;2.53;;;1.37;;
10381;SDS011;11635;53.636;10.120;2023-02-01T06:23:12;2.22;;;1.20;;
10381;SDS011;11635;53.636;10.120;2023-02-01T06:25:39;4.57;;;1.60;;
10381;SDS011;11635;53.636;10.120;2023-02-01T06:28:06;4.30;;;1.60;;
10381;SDS011;11635;53.636;10.120;2023-02-01T06:30:34;3.67;;;1.77;;
10381;SDS011;11635;53.636;10.120;2023-02-01T06:33:02;2.08;;;1.42;;
10381;SDS011;11635;53.636;10.120;2023-02-01T06:35:28;3.70;;;1.85;;
10381;SDS011;11635;53.636;10.120;2023-02-01T06:37:55;5.22;;;2.10;;
10381;SDS011;11635;53.636;10.120;2023-02-01T06:40:23;6.47;;;2.65;;
10381;SDS011;11635;53.636;10.120;2023-02-01T06:42:49;4.03;;;2.13;;
10381;SDS011;11635;53.636;10.120;2023-02-01T06:45:15;6.00;;;2.23;;
10381;SDS011;11635;53.636;10.120;2023-02-01T06:47:42;4.40;;;2.27;;
10381;SDS011;11635;53.636;10.120;2023-02-01T06:50:11;10.10;;;2.90;;
10381;SDS011;11635;53.636;10.120;2023-02-01T06:52:38;11.15;;;3.22;;
10381;SDS011;11635;53.636;10.120;2023-02-01T06:55:06;10.47;;;3.53;;
10381;SDS011;11635;53.636;10.120;2023-02-01T06:57:32;9.25;;;2.92;;
10381;SDS011;11635;53.636;10.120;2023-02-01T07:00:01;13.73;;;3.70;;
10381;SDS011;11635;53.636;10.120;2023-02-01T07:02:28;15.57;;;5.10;;
10381;SDS011;11635;53.636;10.120;2023-02-01T07:04:55;10.07;;;3.55;;
10381;SDS011;11635;53.636;10.120;2023-02-01T07:07:22;12.75;;;4.07;;
10381;SDS011;11635;53.636;10.120;2023-02-01T07:09:49;12.82;;;3.42;;
10381;SDS011;11635;53.636;10.120;2023-02-01T07:12:15;14.80;;;3.85;;
10381;SDS011;11635;53.636;10.120;2023-02-01T07:14:42;15.85;;;4.72;;
10381;SDS011;11635;53.636;10.120;2023-02-01T07:17:08;15.07;;;4.07;;
10381;SDS011;11635;53.636;10.120;2023-02-01T07:19:35;21.07;;;4.30;;
10381;SDS011;11635;53.636;10.120;2023-02-01T07:22:02;16.80;;;4.05;;
10381;SDS011;11635;53.636;10.120;2023-02-01T07:24:29;13.73;;;4.07;;
10381;SDS011;11635;53.636;10.120;2023-02-01T07:26:56;19.57;;;4.87;;
10381;SDS011;11635;53.636;10.120;2023-02-01T07:29:22;18.17;;;4.93;;
10381;SDS011;11635;53.636;10.120;2023-02-01T07:31:49;23.60;;;5.22;;
10381;SDS011;11635;53.636;10.120;2023-02-01T07:34:15;22.95;;;5.55;;
10381;SDS011;11635;53.636;10.120;2023-02-01T07:36:41;26.83;;;5.10;;
10381;SDS011;11635;53.636;10.120;2023-02-01T07:39:08;24.80;;;5.10;;
10381;SDS011;11635;53.636;10.120;2023-02-01T07:41:36;20.02;;;5.22;;
10381;SDS011;11635;53.636;10.120;2023-02-01T07:44:02;24.40;;;5.57;;
10381;SDS011;11635;53.636;10.120;2023-02-01T07:46:28;21.92;;;5.00;;
10381;SDS011;11635;53.636;10.120;2023-02-01T07:48:55;23.00;;;5.45;;
10381;SDS011;11635;53.636;10.120;2023-02-01T07:51:21;21.02;;;5.80;;
10381;SDS011;11635;53.636;10.120;2023-02-01T07:53:48;23.33;;;5.97;;
10381;SDS011;11635;53.636;10.120;2023-02-01T07:56:14;27.60;;;6.55;;
10381;SDS011;11635;53.636;10.120;2023-02-01T07:58:42;17.90;;;5.20;;
10381;SDS011;11635;53.636;10.120;2023-02-01T08:01:13;16.58;;;4.22;;
10381;SDS011;11635;53.636;10.120;2023-02-01T08:03:50;25.50;;;5.47;;
10381;SDS011;11635;53.636;10.120;2023-02-01T08:06:16;24.33;;;4.88;;
10381;SDS011;11635;53.636;10.120;2023-02-01T08:08:44;19.10;;;5.20;;
10381;SDS011;11635;53.636;10.120;2023-02-01T08:11:12;19.67;;;5.47;;
10381;SDS011;11635;53.636;10.120;2023-02-01T08:13:38;29.38;;;5.88;;
10381;SDS011;11635;53.636;10.120;2023-02-01T08:16:07;20.15;;;4.85;;
10381;SDS011;11635;53.636;10.120;2023-02-01T08:18:35;26.88;;;5.60;;
10381;SDS011;11635;53.636;10.120;2023-02-01T08:21:03;23.55;;;5.13;;
10381;SDS011;11635;53.636;10.120;2023-02-01T08:23:29;26.23;;;6.25;;
10381;SDS011;11635;53.636;10.120;2023-02-01T08:26:03;22.90;;;5.18;;
10381;SDS011;11635;53.636;10.120;2023-02-01T08:28:29;36.72;;;6.93;;
10381;SDS011;11635;53.636;10.120;2023-02-01T08:30:56;29.30;;;7.32;;
10381;SDS011;11635;53.636;10.120;2023-02-01T08:33:23;23.08;;;6.20;;
10381;SDS011;11635;53.636;10.120;2023-02-01T08:35:50;29.48;;;6.18;;
10381;SDS011;11635;53.636;10.120;2023-02-01T08:38:16;24.98;;;6.03;;
10381;SDS011;11635;53.636;10.120;2023-02-01T08:40:42;30.95;;;5.90;;
10381;SDS011;11635;53.636;10.120;2023-02-01T08:43:09;33.70;;;6.82;;
10381;SDS011;11635;53.636;10.120;2023-02-01T08:45:35;35.03;;;6.40;;
10381;SDS011;11635;53.636;10.120;2023-02-01T08:48:02;28.55;;;6.68;;
10381;SDS011;11635;53.636;10.120;2023-02-01T08:50:29;28.85;;;6.20;;
10381;SDS011;11635;53.636;10.120;2023-02-01T08:52:56;21.23;;;6.38;;
10381;SDS011;11635;53.636;10.120;2023-02-01T08:55:22;21.52;;;5.15;;
10381;SDS011;11635;53.636;10.120;2023-02-01T08:57:48;15.88;;;4.90;;
10381;SDS011;11635;53.636;10.120;2023-02-01T09:00:15;19.15;;;5.32;;
10381;SDS011;11635;53.636;10.120;2023-02-01T09:02:42;30.05;;;4.20;;
10381;SDS011;11635;53.636;10.120;2023-02-01T09:05:09;13.48;;;3.88;;
10381;SDS011;11635;53.636;10.120;2023-02-01T09:07:37;13.07;;;4.22;;
10381;SDS011;11635;53.636;10.120;2023-02-01T09:10:04;14.90;;;3.45;;
10381;SDS011;11635;53.636;10.120;2023-02-01T09:12:31;17.33;;;3.97;;
10381;SDS011;11635;53.636;10.120;2023-02-01T09:14:58;15.65;;;4.05;;
10381;SDS011;11635;53.636;10.120;2023-02-01T09:17:25;22.40;;;5.47;;
10381;SDS011;11635;53.636;10.120;2023-02-01T09:19:51;20.83;;;5.10;;
10381;SDS011;11635;53.636;10.120;2023-02-01T09:22:18;26.75;;;5.70;;
10381;SDS011;11635;53.636;10.120;2023-02-01T09:24:45;21.17;;;5.93;;
10381;SDS011;11635;53.636;10.120;2023-02-01T09:27:12;24.73;;;5.28;;
10381;SDS011;11635;53.636;10.120;2023-02-01T09:29:38;21.95;;;5.25;;
10381;SDS011;11635;53.636;10.120;2023-02-01T09:32:04;22.80;;;5.05;;
10381;SDS011;11635;53.636;10.120;2023-02-01T09:34:31;23.85;;;5.65;;
10381;SDS011;11635;53.636;10.120;2023-02-01T09:36:57;24.23;;;6.35;;
10381;SDS011;11635;53.636;10.120;2023-02-01T09:39:24;26.73;;;5.97;;
10381;SDS011;11635;53.636;10.120;2023-02-01T09:41:54;17.35;;;4.95;;
10381;SDS011;11635;53.636;10.120;2023-02-01T09:44:27;26.75;;;6.32;;
10381;SDS011;11635;53.636;10.120;2023-02-01T09:46:58;23.30;;;5.50;;
10381;SDS011;11635;53.636;10.120;2023-02-01T09:49:26;17.77;;;4.95;;
10381;SDS011;11635;53.636;10.120;2023-02-01T09:51:54;21.48;;;6.03;;
10381;SDS011;11635;53.636;10.120;2023-02-01T09:54:22;21.52;;;5.40;;
10381;SDS011;11635;53.636;10.120;2023-02-01T09:56:53;21.02;;;5.95;;
10381;SDS011;11635;53.636;10.120;2023-02-01T09:59:24;22.73;;;5.32;;
10381;SDS011;11635;53.636;10.120;2023-02-01T10:01:53;26.27;;;5.32;;
10381;SDS011;11635;53.636;10.120;2023-02-01T10:04:20;20.30;;;4.88;;
10381;SDS011;11635;53.636;10.120;2023-02-01T10:06:50;24.13;;;5.82;;
10381;SDS011;11635;53.636;10.120;2023-02-01T10:09:25;18.63;;;5.30;;
10381;SDS011;11635;53.636;10.120;2023-02-01T10:14:55;16.55;;;4.50;;
10381;SDS011;11635;53.636;10.120;2023-02-01T10:17:25;21.85;;;6.07;;
10381;SDS011;11635;53.636;10.120;2023-02-01T10:19:57;16.85;;;4.43;;
10381;SDS011;11635;53.636;10.120;2023-02-01T10:22:29;21.23;;;4.85;;
10381;SDS011;11635;53.636;10.120;2023-02-01T10:24:57;25.52;;;5.68;;
10381;SDS011;11635;53.636;10.120;2023-02-01T10:27:27;16.52;;;4.28;;
10381;SDS011;11635;53.636;10.120;2023-02-01T10:29:57;21.52;;;4.43;;
10381;SDS011;11635;53.636;10.120;2023-02-01T10:32:29;17.73;;;4.47;;
10381;SDS011;11635;53.636;10.120;2023-02-01T10:34:57;16.17;;;4.32;;
10381;SDS011;11635;53.636;10.120;2023-02-01T10:37:25;12.55;;;4.35;;
10381;SDS011;11635;53.636;10.120;2023-02-01T10:39:52;20.67;;;4.68;;
10381;SDS011;11635;53.636;10.120;2023-02-01T10:42:20;14.55;;;5.00;;
10381;SDS011;11635;53.636;10.120;2023-02-01T10:44:47;17.88;;;5.20;;
10381;SDS011;11635;53.636;10.120;2023-02-01T10:47:16;18.67;;;4.47;;
10381;SDS011;11635;53.636;10.120;2023-02-01T10:49:43;24.08;;;5.18;;
10381;SDS011;11635;53.636;10.120;2023-02-01T10:52:12;20.05;;;4.28;;
10381;SDS011;11635;53.636;10.120;2023-02-01T10:54:40;20.38;;;3.95;;
10381;SDS011;11635;53.636;10.120;2023-02-01T10:57:07;16.55;;;4.30;;
10381;SDS011;11635;53.636;10.120;2023-02-01T10:59:34;20.95;;;5.32;;
10381;SDS011;11635;53.636;10.120;2023-02-01T11:02:02;18.35;;;5.05;;
10381;SDS011;11635;53.636;10.120;2023-02-01T11:04:33;15.45;;;5.13;;
10381;SDS011;11635;53.636;10.120;2023-02-01T11:07:05;18.40;;;4.93;;
10381;SDS011;11635;53.636;10.120;2023-02-01T11:09:32;28.02;;;4.82;;
10381;SDS011;11635;53.636;10.120;2023-02-01T11:12:01;16.60;;;4.40;;
10381;SDS011;11635;53.636;10.120;2023-02-01T11:14:30;18.48;;;5.10;;
10381;SDS011;11635;53.636;10.120;2023-02-01T11:17:00;24.88;;;5.72;;
10381;SDS011;11635;53.636;10.120;2023-02-01T11:19:27;17.15;;;3.85;;
10381;SDS011;11635;53.636;10.120;2023-02-01T11:21:56;13.20;;;3.97;;
10381;SDS011;11635;53.636;10.120;2023-02-01T11:24:24;12.85;;;3.33;;
10381;SDS011;11635;53.636;10.120;2023-02-01T11:26:53;12.55;;;3.35;;
10381;SDS011;11635;53.636;10.120;2023-02-01T11:29:20;8.90;;;3.40;;
10381;SDS011;11635;53.636;10.120;2023-02-01T11:31:53;16.80;;;3.58;;
10381;SDS011;11635;53.636;10.120;2023-02-01T11:34:21;11.77;;;3.53;;
10381;SDS011;11635;53.636;10.120;2023-02-01T11:36:48;17.90;;;4.20;;
10381;SDS011;11635;53.636;10.120;2023-02-01T11:39:20;24.08;;;5.10;;
10381;SDS011;11635;53.636;10.120;2023-02-01T11:41:55;14.57;;;4.88;;
10381;SDS011;11635;53.636;10.120;2023-02-01T11:44:26;15.50;;;4.68;;
10381;SDS011;11635;53.636;10.120;2023-02-01T11:46:55;22.90;;;5.45;;
10381;SDS011;11635;53.636;10.120;2023-02-01T11:49:23;14.80;;;4.78;;
10381;SDS011;11635;53.636;10.120;2023-02-01T11:51:53;19.40;;;5.35;;
10381;SDS011;11635;53.636;10.120;2023-02-01T11:54:26;22.65;;;5.43;;
10381;SDS011;11635;53.636;10.120;2023-02-01T11:56:59;27.67;;;6.27;;
10381;SDS011;11635;53.636;10.120;2023-02-01T11:59:45;21.05;;;5.72;;
10381;SDS011;11635;53.636;10.120;2023-02-01T12:02:19;16.50;;;3.97;;
10381;SDS011;11635;53.636;10.120;2023-02-01T12:07:33;21.73;;;4.57;;
10381;SDS011;11635;53.636;10.120;2023-02-01T12:10:07;16.52;;;4.82;;
10381;SDS011;11635;53.636;10.120;2023-02-01T12:12:39;18.85;;;4.75;;
10381;SDS011;11635;53.636;10.120;2023-02-01T12:18:11;17.48;;;4.07;;
10381;SDS011;11635;53.636;10.120;2023-02-01T12:20:56;14.27;;;3.95;;
10381;SDS011;11635;53.636;10.120;2023-02-01T12:23:29;12.40;;;3.63;;
10381;SDS011;11635;53.636;10.120;2023-02-01T12:26:02;13.20;;;3.53;;
10381;SDS011;11635;53.636;10.120;2023-02-01T12:28:36;13.32;;;3.55;;
10381;SDS011;11635;53.636;10.120;2023-02-01T12:31:13;9.98;;;2.85;;
10381;SDS011;11635;53.636;10.120;2023-02-01T12:33:48;11.20;;;3.33;;
10381;SDS011;11635;53.636;10.120;2023-02-01T12:36:16;12.32;;;3.05;;
10381;SDS011;11635;53.636;10.120;2023-02-01T12:38:46;9.20;;;3.38;;
10381;SDS011;11635;53.636;10.120;2023-02-01T12:44:19;11.05;;;3.30;;
10381;SDS011;11635;53.636;10.120;2023-02-01T12:46:49;6.88;;;2.47;;
10381;SDS011;11635;53.636;10.120;2023-02-01T12:49:17;3.90;;;2.05;;
10381;SDS011;11635;53.636;10.120;2023-02-01T12:51:45;6.22;;;2.25;;
10381;SDS011;11635;53.636;10.120;2023-02-01T12:54:15;4.22;;;1.70;;
10381;SDS011;11635;53.636;10.120;2023-02-01T12:56:45;6.22;;;1.40;;
10381;SDS011;11635;53.636;10.120;2023-02-01T12:59:15;3.28;;;1.23;;
10381;SDS011;11635;53.636;10.120;2023-02-01T13:01:45;3.63;;;1.38;;
10381;SDS011;11635;53.636;10.120;2023-02-01T13:04:16;2.17;;;1.10;;
10381;SDS011;11635;53.636;10.120;2023-02-01T13:06:44;3.80;;;1.30;;
10381;SDS011;11635;53.636;10.120;2023-02-01T13:09:15;2.70;;;1.20;;
10381;SDS011;11635;53.636;10.120;2023-02-01T13:11:44;3.70;;;1.10;;
10381;SDS011;11635;53.636;10.120;2023-02-01T13:14:14;4.30;;;1.02;;
10381;SDS011;11635;53.636;10.120;2023-02-01T13:16:45;4.50;;;1.15;;
10381;SDS011;11635;53.636;10.120;2023-02-01T13:19:14;3.38;;;1.40;;
10381;SDS011;11635;53.636;10.120;2023-02-01T13:21:43;2.90;;;1.10;;
10381;SDS011;11635;53.636;10.120;2023-02-01T13:24:16;3.25;;;1.40;;
10381;SDS011;11635;53.636;10.120;2023-02-01T13:26:46;2.95;;;1.00;;
10381;SDS011;11635;53.636;10.120;2023-02-01T13:29:12;2.67;;;1.10;;
10381;SDS011;11635;53.636;10.120;2023-02-01T13:34:42;3.75;;;1.20;;
10381;SDS011;11635;53.636;10.120;2023-02-01T13:37:15;4.05;;;1.30;;
10381;SDS011;11635;53.636;10.120;2023-02-01T13:39:48;4.10;;;1.65;;
10381;SDS011;11635;53.636;10.120;2023-02-01T13:42:18;1.80;;;0.90;;
10381;SDS011;11635;53.636;10.120;2023-02-01T13:44:47;2.78;;;1.10;;
10381;SDS011;11635;53.636;10.120;2023-02-01T13:47:18;4.88;;;1.23;;
10381;SDS011;11635;53.636;10.120;2023-02-01T13:49:49;7.40;;;1.60;;
10381;SDS011;11635;53.636;10.120;2023-02-01T13:52:24;3.65;;;1.65;;
10381;SDS011;11635;53.636;10.120;2023-02-01T13:55:00;4.40;;;1.30;;
10381;SDS011;11635;53.636;10.120;2023-02-01T13:57:34;3.10;;;1.52;;
10381;SDS011;11635;53.636;10.120;2023-02-01T14:00:06;6.53;;;1.58;;
10381;SDS011;11635;53.636;10.120;2023-02-01T14:08:38;2.97;;;1.33;;
10381;SDS011;11635;53.636;10.120;2023-02-01T14:11:05;3.25;;;1.70;;
10381;SDS011;11635;53.636;10.120;2023-02-01T14:13:32;2.03;;;1.13;;
10381;SDS011;11635;53.636;10.120;2023-02-01T14:16:13;2.33;;;1.20;;
10381;SDS011;11635;53.636;10.120;2023-02-01T14:18:48;2.97;;;1.40;;
10381;SDS011;11635;53.636;10.120;2023-02-01T14:21:17;3.70;;;1.85;;
10381;SDS011;11635;53.636;10.120;2023-02-01T14:23:47;3.45;;;1.55;;
10381;SDS011;11635;53.636;10.120;2023-02-01T14:26:20;5.43;;;1.95;;
10381;SDS011;11635;53.636;10.120;2023-02-01T14:28:53;5.90;;;1.77;;
10381;SDS011;11635;53.636;10.120;2023-02-01T14:34:10;5.90;;;2.53;;
10381;SDS011;11635;53.636;10.120;2023-02-01T14:36:42;4.30;;;1.80;;
10381;SDS011;11635;53.636;10.120;2023-02-01T14:39:19;7.70;;;1.80;;
10381;SDS011;11635;53.636;10.120;2023-02-01T14:41:47;10.77;;;2.42;;
10381;SDS011;11635;53.636;10.120;2023-02-01T14:44:21;10.53;;;2.47;;
10381;SDS011;11635;53.636;10.120;2023-02-01T14:47:08;7.78;;;2.00;;
10381;SDS011;11635;53.636;10.120;2023-02-01T14:49:36;6.25;;;1.90;;
10381;SDS011;11635;53.636;10.120;2023-02-01T14:52:05;11.02;;;2.55;;
10381;SDS011;11635;53.636;10.120;2023-02-01T14:54:33;9.60;;;2.33;;
10381;SDS011;11635;53.636;10.120;2023-02-01T14:57:00;6.95;;;2.25;;
10381;SDS011;11635;53.636;10.120;2023-02-01T14:59:26;9.13;;;2.60;;